sensor_id;sensor_type;location;lat;lon;timestamp;temperature;humidity
8896;DHT22;4484;48.928;10.066;2022-11-09T00:01:01;8.70;99.90
8896;DHT22;4484;48.928;10.066;2022-11-09T00:03:29;8.70;99.90
8896;DHT22;4484;48.928;10.066;2022-11-09T00:05:57;8.70;99.90
8896;DHT22;4484;48.928;10.066;2022-11-09T00:08:24;8.70;99.90
8896;DHT22;4484;48.928;10.066;2022-11-09T00:10:51;8.60;99.90
8896;DHT22;4484;48.928;10.066;2022-11-09T00:13:18;8.60;99.90
8896;DHT22;4484;48.928;10.066;2022-11-09T00:15:46;8.50;99.90
8896;DHT22;4484;48.928;10.066;2022-11-09T00:18:12;8.50;99.90
8896;DHT22;4484;48.928;10.066;2022-11-09T00:20:39;8.50;99.90
8896;DHT22;4484;48.928;10.066;2022-11-09T00:23:13;8.50;99.90
8896;DHT22;4484;48.928;10.066;2022-11-09T00:25:40;8.50;99.90
8896;DHT22;4484;48.928;10.066;2022-11-09T00:28:07;8.50;99.90
8896;DHT22;4484;48.928;10.066;2022-11-09T00:30:34;8.50;99.90
8896;DHT22;4484;48.928;10.066;2022-11-09T00:33:01;8.50;99.90
8896;DHT22;4484;48.928;10.066;2022-11-09T00:35:28;8.50;99.90
8896;DHT22;4484;48.928;10.066;2022-11-09T00:37:55;8.60;99.90
8896;DHT22;4484;48.928;10.066;2022-11-09T00:40:22;8.50;99.90
8896;DHT22;4484;48.928;10.066;2022-11-09T00:42:49;8.50;99.90
8896;DHT22;4484;48.928;10.066;2022-11-09T00:45:16;8.50;99.90
8896;DHT22;4484;48.928;10.066;2022-11-09T00:47:43;8.50;99.90
8896;DHT22;4484;48.928;10.066;2022-11-09T00:50:10;8.50;99.90
8896;DHT22;4484;48.928;10.066;2022-11-09T00:52:37;8.50;99.90
8896;DHT22;4484;48.928;10.066;2022-11-09T00:55:04;8.60;99.90
8896;DHT22;4484;48.928;10.066;2022-11-09T00:57:31;8.60;99.90
8896;DHT22;4484;48.928;10.066;2022-11-09T00:59:58;8.70;99.90
8896;DHT22;4484;48.928;10.066;2022-11-09T01:02:25;8.70;99.90
8896;DHT22;4484;48.928;10.066;2022-11-09T01:04:52;8.80;99.90
8896;DHT22;4484;48.928;10.066;2022-11-09T01:07:19;8.80;99.90
8896;DHT22;4484;48.928;10.066;2022-11-09T01:09:46;8.80;99.90
8896;DHT22;4484;48.928;10.066;2022-11-09T01:12:14;8.80;99.90
8896;DHT22;4484;48.928;10.066;2022-11-09T01:14:41;8.90;99.90
8896;DHT22;4484;48.928;10.066;2022-11-09T01:17:08;8.80;99.90
8896;DHT22;4484;48.928;10.066;2022-11-09T01:19:35;8.90;99.90
8896;DHT22;4484;48.928;10.066;2022-11-09T01:22:02;9.00;99.90
8896;DHT22;4484;48.928;10.066;2022-11-09T01:24:29;9.00;99.90
8896;DHT22;4484;48.928;10.066;2022-11-09T01:26:56;9.00;99.90
8896;DHT22;4484;48.928;10.066;2022-11-09T01:29:22;9.10;99.90
8896;DHT22;4484;48.928;10.066;2022-11-09T01:31:53;9.10;99.90
8896;DHT22;4484;48.928;10.066;2022-11-09T01:34:20;9.10;99.90
8896;DHT22;4484;48.928;10.066;2022-11-09T01:36:51;9.00;99.90
8896;DHT22;4484;48.928;10.066;2022-11-09T01:39:18;9.00;99.90
8896;DHT22;4484;48.928;10.066;2022-11-09T01:41:45;8.90;99.90
8896;DHT22;4484;48.928;10.066;2022-11-09T01:44:15;8.90;99.90
8896;DHT22;4484;48.928;10.066;2022-11-09T01:49:39;8.80;99.90
8896;DHT22;4484;48.928;10.066;2022-11-09T01:54:43;8.70;99.90
8896;DHT22;4484;48.928;10.066;2022-11-09T01:57:17;8.60;99.90
8896;DHT22;4484;48.928;10.066;2022-11-09T01:59:50;8.50;99.90
8896;DHT22;4484;48.928;10.066;2022-11-09T02:02:19;8.50;99.90
8896;DHT22;4484;48.928;10.066;2022-11-09T02:04:53;8.50;99.90
8896;DHT22;4484;48.928;10.066;2022-11-09T02:07:21;8.50;99.90
8896;DHT22;4484;48.928;10.066;2022-11-09T02:10:03;8.50;99.90
8896;DHT22;4484;48.928;10.066;2022-11-09T02:12:34;8.50;99.90
8896;DHT22;4484;48.928;10.066;2022-11-09T02:15:03;8.50;99.90
8896;DHT22;4484;48.928;10.066;2022-11-09T02:17:31;8.60;99.90
8896;DHT22;4484;48.928;10.066;2022-11-09T02:20:00;8.60;99.90
8896;DHT22;4484;48.928;10.066;2022-11-09T02:22:29;8.70;99.90
8896;DHT22;4484;48.928;10.066;2022-11-09T02:24:56;8.70;99.90
8896;DHT22;4484;48.928;10.066;2022-11-09T02:27:23;8.80;99.90
8896;DHT22;4484;48.928;10.066;2022-11-09T02:29:52;8.70;99.90
8896;DHT22;4484;48.928;10.066;2022-11-09T02:32:20;8.70;99.90
8896;DHT22;4484;48.928;10.066;2022-11-09T02:34:48;8.70;99.90
8896;DHT22;4484;48.928;10.066;2022-11-09T02:40:06;8.70;99.90
8896;DHT22;4484;48.928;10.066;2022-11-09T02:42:35;8.70;99.90
8896;DHT22;4484;48.928;10.066;2022-11-09T02:45:03;8.80;99.90
8896;DHT22;4484;48.928;10.066;2022-11-09T02:47:30;8.80;99.90
8896;DHT22;4484;48.928;10.066;2022-11-09T02:49:57;8.80;99.90
8896;DHT22;4484;48.928;10.066;2022-11-09T02:52:25;8.90;99.90
8896;DHT22;4484;48.928;10.066;2022-11-09T02:54:52;8.90;99.90
8896;DHT22;4484;48.928;10.066;2022-11-09T02:57:19;8.90;99.90
8896;DHT22;4484;48.928;10.066;2022-11-09T02:59:46;8.90;99.90
8896;DHT22;4484;48.928;10.066;2022-11-09T03:02:13;9.00;99.90
8896;DHT22;4484;48.928;10.066;2022-11-09T03:04:40;9.00;99.90
8896;DHT22;4484;48.928;10.066;2022-11-09T03:07:07;9.10;99.90
8896;DHT22;4484;48.928;10.066;2022-11-09T03:09:35;9.10;99.90
8896;DHT22;4484;48.928;10.066;2022-11-09T03:12:02;9.10;99.90
8896;DHT22;4484;48.928;10.066;2022-11-09T03:14:50;9.20;99.90
8896;DHT22;4484;48.928;10.066;2022-11-09T03:17:17;9.20;99.90
8896;DHT22;4484;48.928;10.066;2022-11-09T03:19:45;9.20;99.90
8896;DHT22;4484;48.928;10.066;2022-11-09T03:22:12;9.20;99.90
8896;DHT22;4484;48.928;10.066;2022-11-09T03:24:39;9.20;99.90
8896;DHT22;4484;48.928;10.066;2022-11-09T03:27:07;9.20;99.90
8896;DHT22;4484;48.928;10.066;2022-11-09T03:29:34;9.20;99.90
8896;DHT22;4484;48.928;10.066;2022-11-09T03:32:01;9.20;99.90
8896;DHT22;4484;48.928;10.066;2022-11-09T03:34:28;9.20;99.90
8896;DHT22;4484;48.928;10.066;2022-11-09T03:36:55;9.20;99.90
8896;DHT22;4484;48.928;10.066;2022-11-09T03:39:22;9.30;99.90
8896;DHT22;4484;48.928;10.066;2022-11-09T03:41:49;9.30;99.90
8896;DHT22;4484;48.928;10.066;2022-11-09T03:44:16;9.30;99.90
8896;DHT22;4484;48.928;10.066;2022-11-09T03:46:43;9.30;99.90
8896;DHT22;4484;48.928;10.066;2022-11-09T03:49:10;9.30;99.90
8896;DHT22;4484;48.928;10.066;2022-11-09T03:51:37;9.30;99.90
8896;DHT22;4484;48.928;10.066;2022-11-09T03:54:04;9.30;99.90
8896;DHT22;4484;48.928;10.066;2022-11-09T03:56:31;9.30;99.90
8896;DHT22;4484;48.928;10.066;2022-11-09T03:58:58;9.30;99.90
8896;DHT22;4484;48.928;10.066;2022-11-09T04:01:24;9.40;99.90
8896;DHT22;4484;48.928;10.066;2022-11-09T04:03:51;9.40;99.90
8896;DHT22;4484;48.928;10.066;2022-11-09T04:06:18;9.40;99.90
8896;DHT22;4484;48.928;10.066;2022-11-09T04:08:45;9.40;99.90
8896;DHT22;4484;48.928;10.066;2022-11-09T04:11:18;9.40;99.90
8896;DHT22;4484;48.928;10.066;2022-11-09T04:13:45;9.40;99.90
8896;DHT22;4484;48.928;10.066;2022-11-09T04:16:12;9.50;99.90
8896;DHT22;4484;48.928;10.066;2022-11-09T04:18:39;9.50;99.90
8896;DHT22;4484;48.928;10.066;2022-11-09T04:21:06;9.50;99.90
8896;DHT22;4484;48.928;10.066;2022-11-09T04:23:33;9.50;99.90
8896;DHT22;4484;48.928;10.066;2022-11-09T04:26:00;9.60;99.90
8896;DHT22;4484;48.928;10.066;2022-11-09T04:28:27;9.50;99.90
8896;DHT22;4484;48.928;10.066;2022-11-09T04:30:59;9.60;99.90
8896;DHT22;4484;48.928;10.066;2022-11-09T04:33:26;9.60;99.90
8896;DHT22;4484;48.928;10.066;2022-11-09T04:35:54;9.60;99.90
8896;DHT22;4484;48.928;10.066;2022-11-09T04:38:21;9.70;99.90
8896;DHT22;4484;48.928;10.066;2022-11-09T04:40:48;9.70;99.90
8896;DHT22;4484;48.928;10.066;2022-11-09T04:43:14;9.70;99.90
8896;DHT22;4484;48.928;10.066;2022-11-09T04:45:42;9.80;99.90
8896;DHT22;4484;48.928;10.066;2022-11-09T04:48:10;9.80;99.90
8896;DHT22;4484;48.928;10.066;2022-11-09T04:50:37;9.80;99.90
8896;DHT22;4484;48.928;10.066;2022-11-09T04:53:09;9.80;99.90
8896;DHT22;4484;48.928;10.066;2022-11-09T04:55:37;9.80;99.90
8896;DHT22;4484;48.928;10.066;2022-11-09T04:58:04;9.80;99.90
8896;DHT22;4484;48.928;10.066;2022-11-09T05:00:32;9.80;99.90
8896;DHT22;4484;48.928;10.066;2022-11-09T05:03:03;9.70;99.90
8896;DHT22;4484;48.928;10.066;2022-11-09T05:05:32;9.70;99.90
8896;DHT22;4484;48.928;10.066;2022-11-09T05:08:00;9.70;99.90
8896;DHT22;4484;48.928;10.066;2022-11-09T05:10:27;9.70;99.90
8896;DHT22;4484;48.928;10.066;2022-11-09T05:13:05;9.60;99.90
8896;DHT22;4484;48.928;10.066;2022-11-09T05:15:34;9.60;99.90
8896;DHT22;4484;48.928;10.066;2022-11-09T05:18:01;9.60;99.90
8896;DHT22;4484;48.928;10.066;2022-11-09T05:20:29;9.60;99.90
8896;DHT22;4484;48.928;10.066;2022-11-09T05:22:59;9.60;99.90
8896;DHT22;4484;48.928;10.066;2022-11-09T05:25:46;9.50;99.90
8896;DHT22;4484;48.928;10.066;2022-11-09T05:28:13;9.50;99.90
8896;DHT22;4484;48.928;10.066;2022-11-09T05:30:40;9.50;99.90
8896;DHT22;4484;48.928;10.066;2022-11-09T05:33:07;9.40;99.90
8896;DHT22;4484;48.928;10.066;2022-11-09T05:35:34;9.40;99.90
8896;DHT22;4484;48.928;10.066;2022-11-09T05:38:01;9.30;99.90
8896;DHT22;4484;48.928;10.066;2022-11-09T05:40:28;9.30;99.90
8896;DHT22;4484;48.928;10.066;2022-11-09T05:42:55;9.30;99.90
8896;DHT22;4484;48.928;10.066;2022-11-09T05:45:22;9.20;99.90
8896;DHT22;4484;48.928;10.066;2022-11-09T05:48:09;9.20;99.90
8896;DHT22;4484;48.928;10.066;2022-11-09T05:50:37;9.20;99.90
8896;DHT22;4484;48.928;10.066;2022-11-09T05:53:19;9.20;99.90
8896;DHT22;4484;48.928;10.066;2022-11-09T05:55:47;9.10;99.90
8896;DHT22;4484;48.928;10.066;2022-11-09T05:58:14;9.10;99.90
8896;DHT22;4484;48.928;10.066;2022-11-09T06:00:41;9.10;99.90
8896;DHT22;4484;48.928;10.066;2022-11-09T06:03:09;9.10;99.90
8896;DHT22;4484;48.928;10.066;2022-11-09T06:05:38;9.00;99.90
8896;DHT22;4484;48.928;10.066;2022-11-09T06:08:08;9.00;99.90
8896;DHT22;4484;48.928;10.066;2022-11-09T06:10:35;9.00;99.90
8896;DHT22;4484;48.928;10.066;2022-11-09T06:13:03;8.90;99.90
8896;DHT22;4484;48.928;10.066;2022-11-09T06:15:33;8.90;99.90
8896;DHT22;4484;48.928;10.066;2022-11-09T06:18:00;8.90;99.90
8896;DHT22;4484;48.928;10.066;2022-11-09T06:20:30;8.90;99.90
8896;DHT22;4484;48.928;10.066;2022-11-09T06:23:24;8.90;99.90
8896;DHT22;4484;48.928;10.066;2022-11-09T06:25:59;8.90;99.90
8896;DHT22;4484;48.928;10.066;2022-11-09T06:28:26;8.90;99.90
8896;DHT22;4484;48.928;10.066;2022-11-09T06:30:57;8.90;99.90
8896;DHT22;4484;48.928;10.066;2022-11-09T06:33:26;8.90;99.90
8896;DHT22;4484;48.928;10.066;2022-11-09T06:35:52;8.80;99.90
8896;DHT22;4484;48.928;10.066;2022-11-09T06:38:22;8.80;99.90
8896;DHT22;4484;48.928;10.066;2022-11-09T06:40:54;8.80;99.90
8896;DHT22;4484;48.928;10.066;2022-11-09T06:43:22;8.80;99.90
8896;DHT22;4484;48.928;10.066;2022-11-09T06:45:50;8.80;99.90
8896;DHT22;4484;48.928;10.066;2022-11-09T06:48:17;8.80;99.90
8896;DHT22;4484;48.928;10.066;2022-11-09T06:50:44;8.80;99.90
8896;DHT22;4484;48.928;10.066;2022-11-09T06:53:12;8.90;99.90
8896;DHT22;4484;48.928;10.066;2022-11-09T06:55:40;8.90;99.90
8896;DHT22;4484;48.928;10.066;2022-11-09T06:58:15;8.90;99.90
8896;DHT22;4484;48.928;10.066;2022-11-09T07:00:42;8.90;99.90
8896;DHT22;4484;48.928;10.066;2022-11-09T07:03:13;9.00;99.90
8896;DHT22;4484;48.928;10.066;2022-11-09T07:05:41;9.00;99.90
8896;DHT22;4484;48.928;10.066;2022-11-09T07:08:08;9.00;99.90
8896;DHT22;4484;48.928;10.066;2022-11-09T07:10:35;9.10;99.90
8896;DHT22;4484;48.928;10.066;2022-11-09T07:13:03;9.10;99.90
8896;DHT22;4484;48.928;10.066;2022-11-09T07:15:32;9.10;99.90
8896;DHT22;4484;48.928;10.066;2022-11-09T07:18:01;9.20;99.90
8896;DHT22;4484;48.928;10.066;2022-11-09T07:20:28;9.30;99.90
8896;DHT22;4484;48.928;10.066;2022-11-09T07:22:56;9.30;99.90
8896;DHT22;4484;48.928;10.066;2022-11-09T07:25:23;9.40;99.90
8896;DHT22;4484;48.928;10.066;2022-11-09T07:27:51;9.40;99.90
8896;DHT22;4484;48.928;10.066;2022-11-09T07:30:18;9.50;99.90
8896;DHT22;4484;48.928;10.066;2022-11-09T07:32:45;9.50;99.90
8896;DHT22;4484;48.928;10.066;2022-11-09T07:35:32;9.50;99.90
8896;DHT22;4484;48.928;10.066;2022-11-09T07:38:00;9.60;99.90
8896;DHT22;4484;48.928;10.066;2022-11-09T07:40:28;9.60;99.90
8896;DHT22;4484;48.928;10.066;2022-11-09T07:43:03;9.60;99.90
8896;DHT22;4484;48.928;10.066;2022-11-09T07:45:32;9.70;99.90
8896;DHT22;4484;48.928;10.066;2022-11-09T07:48:02;9.70;99.90
8896;DHT22;4484;48.928;10.066;2022-11-09T07:50:30;9.70;99.90
8896;DHT22;4484;48.928;10.066;2022-11-09T07:52:59;9.70;99.90
8896;DHT22;4484;48.928;10.066;2022-11-09T07:55:28;9.70;99.90
8896;DHT22;4484;48.928;10.066;2022-11-09T07:58:00;9.70;99.90
8896;DHT22;4484;48.928;10.066;2022-11-09T08:00:30;9.70;99.90
8896;DHT22;4484;48.928;10.066;2022-11-09T08:02:57;9.80;99.90
8896;DHT22;4484;48.928;10.066;2022-11-09T08:05:24;9.80;99.90
8896;DHT22;4484;48.928;10.066;2022-11-09T08:07:59;9.80;99.90
8896;DHT22;4484;48.928;10.066;2022-11-09T08:10:27;9.80;99.90
8896;DHT22;4484;48.928;10.066;2022-11-09T08:12:59;9.80;99.90
8896;DHT22;4484;48.928;10.066;2022-11-09T08:15:27;9.90;99.90
8896;DHT22;4484;48.928;10.066;2022-11-09T08:17:59;9.90;99.90
8896;DHT22;4484;48.928;10.066;2022-11-09T08:20:26;9.90;99.90
8896;DHT22;4484;48.928;10.066;2022-11-09T08:22:54;9.90;99.90
8896;DHT22;4484;48.928;10.066;2022-11-09T08:25:28;10.00;99.90
8896;DHT22;4484;48.928;10.066;2022-11-09T08:27:56;10.00;99.90
8896;DHT22;4484;48.928;10.066;2022-11-09T08:30:23;10.00;99.90
8896;DHT22;4484;48.928;10.066;2022-11-09T08:32:50;10.00;99.90
8896;DHT22;4484;48.928;10.066;2022-11-09T08:35:20;10.10;99.90
8896;DHT22;4484;48.928;10.066;2022-11-09T08:37:49;10.10;99.90
8896;DHT22;4484;48.928;10.066;2022-11-09T08:40:18;10.20;99.90
8896;DHT22;4484;48.928;10.066;2022-11-09T08:42:46;10.20;99.90
8896;DHT22;4484;48.928;10.066;2022-11-09T08:45:13;10.30;99.90
8896;DHT22;4484;48.928;10.066;2022-11-09T08:47:40;10.40;99.90
8896;DHT22;4484;48.928;10.066;2022-11-09T08:50:09;10.40;99.90
8896;DHT22;4484;48.928;10.066;2022-11-09T08:52:36;10.50;99.90
8896;DHT22;4484;48.928;10.066;2022-11-09T08:55:04;10.50;99.90
8896;DHT22;4484;48.928;10.066;2022-11-09T08:57:32;10.60;99.90
8896;DHT22;4484;48.928;10.066;2022-11-09T08:59:59;10.60;99.90
8896;DHT22;4484;48.928;10.066;2022-11-09T09:02:26;10.60;99.90
8896;DHT22;4484;48.928;10.066;2022-11-09T09:04:53;10.60;99.90
8896;DHT22;4484;48.928;10.066;2022-11-09T09:07:19;10.60;99.90
8896;DHT22;4484;48.928;10.066;2022-11-09T09:09:46;10.60;99.90
8896;DHT22;4484;48.928;10.066;2022-11-09T09:12:13;10.60;99.90
8896;DHT22;4484;48.928;10.066;2022-11-09T09:14:41;10.60;99.90
8896;DHT22;4484;48.928;10.066;2022-11-09T09:17:07;10.60;99.90
8896;DHT22;4484;48.928;10.066;2022-11-09T09:19:34;10.50;99.90
8896;DHT22;4484;48.928;10.066;2022-11-09T09:22:01;10.60;99.90
8896;DHT22;4484;48.928;10.066;2022-11-09T09:24:28;10.60;99.90
8896;DHT22;4484;48.928;10.066;2022-11-09T09:26:55;10.60;99.90
8896;DHT22;4484;48.928;10.066;2022-11-09T09:29:22;10.60;99.90
8896;DHT22;4484;48.928;10.066;2022-11-09T09:31:49;10.70;99.90
8896;DHT22;4484;48.928;10.066;2022-11-09T09:34:17;10.80;99.90
8896;DHT22;4484;48.928;10.066;2022-11-09T09:36:45;10.80;99.90
8896;DHT22;4484;48.928;10.066;2022-11-09T09:39:14;10.90;99.90
8896;DHT22;4484;48.928;10.066;2022-11-09T09:42:03;11.00;99.90
8896;DHT22;4484;48.928;10.066;2022-11-09T09:47:11;11.00;99.90
8896;DHT22;4484;48.928;10.066;2022-11-09T09:49:46;11.00;99.90
8896;DHT22;4484;48.928;10.066;2022-11-09T09:55:07;11.00;99.90
8896;DHT22;4484;48.928;10.066;2022-11-09T09:57:35;11.10;99.90
8896;DHT22;4484;48.928;10.066;2022-11-09T10:00:18;11.20;99.90
8896;DHT22;4484;48.928;10.066;2022-11-09T10:02:46;11.30;99.90
8896;DHT22;4484;48.928;10.066;2022-11-09T10:05:16;11.40;99.90
8896;DHT22;4484;48.928;10.066;2022-11-09T10:08:08;11.50;99.90
8896;DHT22;4484;48.928;10.066;2022-11-09T10:11:00;11.50;99.90
8896;DHT22;4484;48.928;10.066;2022-11-09T10:22:30;11.80;99.90
8896;DHT22;4484;48.928;10.066;2022-11-09T10:28:10;12.10;99.90
8896;DHT22;4484;48.928;10.066;2022-11-09T10:30:42;12.20;99.90
8896;DHT22;4484;48.928;10.066;2022-11-09T10:33:18;12.20;99.90
8896;DHT22;4484;48.928;10.066;2022-11-09T10:36:06;12.30;99.90
8896;DHT22;4484;48.928;10.066;2022-11-09T10:38:41;12.40;99.90
8896;DHT22;4484;48.928;10.066;2022-11-09T10:41:39;12.50;99.90
8896;DHT22;4484;48.928;10.066;2022-11-09T10:44:24;12.70;99.90
8896;DHT22;4484;48.928;10.066;2022-11-09T10:47:17;12.90;99.90
8896;DHT22;4484;48.928;10.066;2022-11-09T10:53:19;13.30;99.90
8896;DHT22;4484;48.928;10.066;2022-11-09T10:56:19;14.30;99.90
8896;DHT22;4484;48.928;10.066;2022-11-09T11:08:23;17.70;99.90
8896;DHT22;4484;48.928;10.066;2022-11-09T11:14:32;19.00;99.90
8896;DHT22;4484;48.928;10.066;2022-11-09T11:17:24;19.40;99.90
8896;DHT22;4484;48.928;10.066;2022-11-09T11:20:34;19.50;99.90
8896;DHT22;4484;48.928;10.066;2022-11-09T11:23:22;19.50;99.90
8896;DHT22;4484;48.928;10.066;2022-11-09T11:29:27;19.90;99.90
8896;DHT22;4484;48.928;10.066;2022-11-09T11:32:15;20.20;99.90
8896;DHT22;4484;48.928;10.066;2022-11-09T11:35:15;20.30;99.90
8896;DHT22;4484;48.928;10.066;2022-11-09T11:38:26;20.40;99.90
8896;DHT22;4484;48.928;10.066;2022-11-09T11:47:39;20.30;99.90
8896;DHT22;4484;48.928;10.066;2022-11-09T11:59:46;19.90;99.90
8896;DHT22;4484;48.928;10.066;2022-11-09T12:21:09;18.50;99.90
8896;DHT22;4484;48.928;10.066;2022-11-09T12:24:20;18.10;99.90
8896;DHT22;4484;48.928;10.066;2022-11-09T12:30:20;17.20;99.90
8896;DHT22;4484;48.928;10.066;2022-11-09T12:33:15;16.90;99.90
8896;DHT22;4484;48.928;10.066;2022-11-09T12:36:14;16.70;99.90
8896;DHT22;4484;48.928;10.066;2022-11-09T12:39:16;16.50;99.90
8896;DHT22;4484;48.928;10.066;2022-11-09T12:45:17;16.20;99.90
8896;DHT22;4484;48.928;10.066;2022-11-09T12:48:28;16.10;99.90
8896;DHT22;4484;48.928;10.066;2022-11-09T12:51:16;16.00;99.90
8896;DHT22;4484;48.928;10.066;2022-11-09T12:54:06;15.80;99.90
8896;DHT22;4484;48.928;10.066;2022-11-09T12:56:58;15.60;99.90
8896;DHT22;4484;48.928;10.066;2022-11-09T12:59:47;15.50;99.90
8896;DHT22;4484;48.928;10.066;2022-11-09T13:02:41;15.40;99.90
8896;DHT22;4484;48.928;10.066;2022-11-09T13:05:34;15.30;99.90
8896;DHT22;4484;48.928;10.066;2022-11-09T13:08:27;15.30;99.90
8896;DHT22;4484;48.928;10.066;2022-11-09T13:11:21;15.30;99.90
8896;DHT22;4484;48.928;10.066;2022-11-09T13:23:40;15.00;99.90
8896;DHT22;4484;48.928;10.066;2022-11-09T13:32:29;15.00;99.90
8896;DHT22;4484;48.928;10.066;2022-11-09T13:38:30;15.00;99.90
8896;DHT22;4484;48.928;10.066;2022-11-09T13:44:24;14.90;99.90
8896;DHT22;4484;48.928;10.066;2022-11-09T13:47:22;14.80;99.90
8896;DHT22;4484;48.928;10.066;2022-11-09T13:50:22;14.70;99.90
8896;DHT22;4484;48.928;10.066;2022-11-09T13:53:46;14.70;99.90
8896;DHT22;4484;48.928;10.066;2022-11-09T13:56:37;14.60;99.90
8896;DHT22;4484;48.928;10.066;2022-11-09T13:59:44;14.50;99.90
8896;DHT22;4484;48.928;10.066;2022-11-09T14:02:30;14.50;99.90
8896;DHT22;4484;48.928;10.066;2022-11-09T14:05:34;14.40;99.90
8896;DHT22;4484;48.928;10.066;2022-11-09T14:08:24;14.40;99.90
8896;DHT22;4484;48.928;10.066;2022-11-09T14:17:27;14.30;99.90
8896;DHT22;4484;48.928;10.066;2022-11-09T14:20:25;14.30;99.90
8896;DHT22;4484;48.928;10.066;2022-11-09T14:23:23;14.30;99.90
8896;DHT22;4484;48.928;10.066;2022-11-09T14:26:16;14.20;99.90
8896;DHT22;4484;48.928;10.066;2022-11-09T14:29:22;14.30;99.90
8896;DHT22;4484;48.928;10.066;2022-11-09T14:38:34;14.10;99.90
8896;DHT22;4484;48.928;10.066;2022-11-09T14:41:23;14.00;99.90
8896;DHT22;4484;48.928;10.066;2022-11-09T14:44:29;13.90;99.90
8896;DHT22;4484;48.928;10.066;2022-11-09T14:47:28;13.90;99.90
8896;DHT22;4484;48.928;10.066;2022-11-09T14:53:14;13.70;99.90
8896;DHT22;4484;48.928;10.066;2022-11-09T14:56:03;13.70;99.90
8896;DHT22;4484;48.928;10.066;2022-11-09T14:58:50;13.70;99.90
8896;DHT22;4484;48.928;10.066;2022-11-09T15:01:36;13.60;99.90
8896;DHT22;4484;48.928;10.066;2022-11-09T15:04:21;13.60;99.90
8896;DHT22;4484;48.928;10.066;2022-11-09T15:07:17;13.50;99.90
8896;DHT22;4484;48.928;10.066;2022-11-09T15:10:19;13.40;99.90
8896;DHT22;4484;48.928;10.066;2022-11-09T15:13:08;13.40;99.90
8896;DHT22;4484;48.928;10.066;2022-11-09T15:15:54;13.30;99.90
8896;DHT22;4484;48.928;10.066;2022-11-09T15:18:43;13.20;99.90
8896;DHT22;4484;48.928;10.066;2022-11-09T15:24:17;13.10;99.90
8896;DHT22;4484;48.928;10.066;2022-11-09T15:27:27;13.10;99.90
8896;DHT22;4484;48.928;10.066;2022-11-09T15:30:47;13.00;99.90
8896;DHT22;4484;48.928;10.066;2022-11-09T15:36:30;12.90;99.90
8896;DHT22;4484;48.928;10.066;2022-11-09T15:39:18;12.90;99.90
8896;DHT22;4484;48.928;10.066;2022-11-09T15:42:05;12.90;99.90
8896;DHT22;4484;48.928;10.066;2022-11-09T15:44:57;12.80;99.90
8896;DHT22;4484;48.928;10.066;2022-11-09T15:47:54;12.80;99.90
8896;DHT22;4484;48.928;10.066;2022-11-09T15:50:39;12.70;99.90
8896;DHT22;4484;48.928;10.066;2022-11-09T15:53:25;12.60;99.90
8896;DHT22;4484;48.928;10.066;2022-11-09T15:56:29;12.60;99.90
8896;DHT22;4484;48.928;10.066;2022-11-09T15:59:24;12.60;99.90
8896;DHT22;4484;48.928;10.066;2022-11-09T16:02:10;12.50;99.90
8896;DHT22;4484;48.928;10.066;2022-11-09T16:04:56;12.50;99.90
8896;DHT22;4484;48.928;10.066;2022-11-09T16:07:52;12.40;99.90
8896;DHT22;4484;48.928;10.066;2022-11-09T16:10:39;12.40;99.90
8896;DHT22;4484;48.928;10.066;2022-11-09T16:13:25;12.40;99.90
8896;DHT22;4484;48.928;10.066;2022-11-09T16:16:12;12.30;99.90
8896;DHT22;4484;48.928;10.066;2022-11-09T16:18:58;12.30;99.90
8896;DHT22;4484;48.928;10.066;2022-11-09T16:21:45;12.20;99.90
8896;DHT22;4484;48.928;10.066;2022-11-09T16:24:31;12.20;99.90
8896;DHT22;4484;48.928;10.066;2022-11-09T16:27:17;12.20;99.90
8896;DHT22;4484;48.928;10.066;2022-11-09T16:30:23;12.10;99.90
8896;DHT22;4484;48.928;10.066;2022-11-09T16:33:08;12.10;99.90
8896;DHT22;4484;48.928;10.066;2022-11-09T16:35:56;12.10;99.90
8896;DHT22;4484;48.928;10.066;2022-11-09T16:38:45;12.10;99.90
8896;DHT22;4484;48.928;10.066;2022-11-09T16:41:31;12.00;99.90
8896;DHT22;4484;48.928;10.066;2022-11-09T16:44:21;12.00;99.90
8896;DHT22;4484;48.928;10.066;2022-11-09T16:47:10;12.00;99.90
8896;DHT22;4484;48.928;10.066;2022-11-09T16:49:56;12.00;99.90
8896;DHT22;4484;48.928;10.066;2022-11-09T16:52:42;12.00;99.90
8896;DHT22;4484;48.928;10.066;2022-11-09T16:55:27;12.00;99.90
8896;DHT22;4484;48.928;10.066;2022-11-09T16:58:12;11.90;99.90
8896;DHT22;4484;48.928;10.066;2022-11-09T17:00:57;11.90;99.90
8896;DHT22;4484;48.928;10.066;2022-11-09T17:04:03;11.90;99.90
8896;DHT22;4484;48.928;10.066;2022-11-09T17:06:49;11.90;99.90
8896;DHT22;4484;48.928;10.066;2022-11-09T17:09:35;11.90;99.90
8896;DHT22;4484;48.928;10.066;2022-11-09T17:12:21;11.80;99.90
8896;DHT22;4484;48.928;10.066;2022-11-09T17:15:06;11.80;99.90
8896;DHT22;4484;48.928;10.066;2022-11-09T17:17:52;11.80;99.90
8896;DHT22;4484;48.928;10.066;2022-11-09T17:20:45;11.80;99.90
8896;DHT22;4484;48.928;10.066;2022-11-09T17:23:31;11.80;99.90
8896;DHT22;4484;48.928;10.066;2022-11-09T17:26:18;11.70;99.90
8896;DHT22;4484;48.928;10.066;2022-11-09T17:29:05;11.70;99.90
8896;DHT22;4484;48.928;10.066;2022-11-09T17:31:50;11.70;99.90
8896;DHT22;4484;48.928;10.066;2022-11-09T17:34:36;11.60;99.90
8896;DHT22;4484;48.928;10.066;2022-11-09T17:37:21;11.60;99.90
8896;DHT22;4484;48.928;10.066;2022-11-09T17:40:08;11.60;99.90
8896;DHT22;4484;48.928;10.066;2022-11-09T17:42:54;11.60;99.90
8896;DHT22;4484;48.928;10.066;2022-11-09T17:45:41;11.60;99.90
8896;DHT22;4484;48.928;10.066;2022-11-09T17:48:26;11.60;99.90
8896;DHT22;4484;48.928;10.066;2022-11-09T17:51:13;11.50;99.90
8896;DHT22;4484;48.928;10.066;2022-11-09T17:54:02;11.50;99.90
8896;DHT22;4484;48.928;10.066;2022-11-09T17:56:49;11.50;99.90
8896;DHT22;4484;48.928;10.066;2022-11-09T17:59:35;11.50;99.90
8896;DHT22;4484;48.928;10.066;2022-11-09T18:02:21;11.50;99.90
8896;DHT22;4484;48.928;10.066;2022-11-09T18:05:06;11.50;99.90
8896;DHT22;4484;48.928;10.066;2022-11-09T18:07:52;11.50;99.90
8896;DHT22;4484;48.928;10.066;2022-11-09T18:10:39;11.50;99.90
8896;DHT22;4484;48.928;10.066;2022-11-09T18:13:25;11.50;99.90
8896;DHT22;4484;48.928;10.066;2022-11-09T18:16:14;11.40;99.90
8896;DHT22;4484;48.928;10.066;2022-11-09T18:19:03;11.50;99.90
8896;DHT22;4484;48.928;10.066;2022-11-09T18:21:48;11.40;99.90
8896;DHT22;4484;48.928;10.066;2022-11-09T18:24:34;11.50;99.90
8896;DHT22;4484;48.928;10.066;2022-11-09T18:27:20;11.40;99.90
8896;DHT22;4484;48.928;10.066;2022-11-09T18:30:15;11.40;99.90
8896;DHT22;4484;48.928;10.066;2022-11-09T18:33:00;11.40;99.90
8896;DHT22;4484;48.928;10.066;2022-11-09T18:35:57;11.40;99.90
8896;DHT22;4484;48.928;10.066;2022-11-09T18:38:44;11.40;99.90
8896;DHT22;4484;48.928;10.066;2022-11-09T18:41:29;11.40;99.90
8896;DHT22;4484;48.928;10.066;2022-11-09T18:44:15;11.40;99.90
8896;DHT22;4484;48.928;10.066;2022-11-09T18:47:01;11.30;99.90
8896;DHT22;4484;48.928;10.066;2022-11-09T18:49:51;11.30;99.90
8896;DHT22;4484;48.928;10.066;2022-11-09T18:52:37;11.30;99.90
8896;DHT22;4484;48.928;10.066;2022-11-09T18:55:23;11.30;99.90
8896;DHT22;4484;48.928;10.066;2022-11-09T18:58:09;11.30;99.90
8896;DHT22;4484;48.928;10.066;2022-11-09T19:01:05;11.30;99.90
8896;DHT22;4484;48.928;10.066;2022-11-09T19:03:52;11.30;99.90
8896;DHT22;4484;48.928;10.066;2022-11-09T19:06:45;11.20;99.90